createdAt,value
2023-03-26T00:00:25.874Z,99231.38
2023-03-26T00:02:52.336Z,99232.75
2023-03-26T00:08:12.858Z,99229.63
2023-03-26T00:10:39.372Z,99238.41
2023-03-26T00:13:06.745Z,99235.66
2023-03-26T00:15:33.166Z,99231.81
2023-03-26T00:18:00.522Z,99228.00
2023-03-26T00:23:12.773Z,99219.50
2023-03-26T00:25:41.963Z,99224.72
2023-03-26T00:28:09.195Z,99216.78
2023-03-26T00:30:37.493Z,99220.09
2023-03-26T00:33:03.997Z,99218.78
2023-03-26T00:38:14.364Z,99210.81
2023-03-26T00:40:40.710Z,99204.34
2023-03-26T00:43:07.929Z,99205.75
2023-03-26T00:45:34.288Z,99197.00
2023-03-26T00:48:02.562Z,99200.47
2023-03-26T00:53:23.431Z,99208.97
2023-03-26T00:55:49.892Z,99205.69
2023-03-26T00:58:16.272Z,99207.41
2023-03-26T01:00:43.192Z,99202.63
2023-03-26T01:03:12.961Z,99199.41
2023-03-26T01:08:41.100Z,99204.22
2023-03-26T01:11:08.307Z,99207.59
2023-03-26T01:13:36.605Z,99203.94
2023-03-26T01:16:04.929Z,99197.25
2023-03-26T01:18:32.163Z,99202.56
2023-03-26T01:23:42.463Z,99201.50
2023-03-26T01:26:08.794Z,99193.31
2023-03-26T01:28:35.141Z,99184.13
2023-03-26T01:31:01.488Z,99181.00
2023-03-26T01:33:27.898Z,99188.47
2023-03-26T01:35:54.445Z,99187.00
2023-03-26T01:38:21.012Z,99179.06
2023-03-26T01:40:47.424Z,99177.88
2023-03-26T01:43:14.657Z,99171.97
2023-03-26T01:45:40.980Z,99181.09
2023-03-26T01:48:07.312Z,99171.59
2023-03-26T01:50:33.659Z,99167.09
2023-03-26T01:52:59.969Z,99164.06
2023-03-26T01:55:26.346Z,99169.63
2023-03-26T01:57:52.717Z,99167.19
2023-03-26T02:00:19.062Z,99157.78
2023-03-26T02:02:45.545Z,99162.75
2023-03-26T02:05:12.104Z,99154.06
2023-03-26T02:07:38.460Z,99158.31
2023-03-26T02:10:04.830Z,99152.44
2023-03-26T02:12:31.201Z,99152.75
2023-03-26T02:14:57.526Z,99143.09
2023-03-26T02:17:24.145Z,99146.44
2023-03-26T02:19:50.689Z,99150.75
2023-03-26T02:22:17.017Z,99144.94
2023-03-26T02:24:43.382Z,99148.59
2023-03-26T02:27:09.707Z,99138.88
2023-03-26T02:29:36.053Z,99138.53
2023-03-26T02:32:02.439Z,99132.88
2023-03-26T02:34:28.800Z,99136.19
2023-03-26T02:36:55.147Z,99135.47
2023-03-26T02:42:15.417Z,99130.53
2023-03-26T02:44:41.807Z,99142.84
2023-03-26T02:47:08.159Z,99142.59
2023-03-26T02:49:34.508Z,99142.94
2023-03-26T02:52:00.861Z,99140.50
2023-03-26T02:57:10.810Z,99134.69
2023-03-26T02:59:37.163Z,99130.38
2023-03-26T03:02:03.672Z,99136.19
2023-03-26T03:04:30.151Z,99131.13
2023-03-26T03:06:56.510Z,99141.13
2023-03-26T03:12:16.531Z,99140.25
2023-03-26T03:14:42.905Z,99141.13
2023-03-26T03:17:09.287Z,99143.03
2023-03-26T03:19:35.636Z,99151.03
2023-03-26T03:22:03.079Z,99142.25
2023-03-26T03:27:23.101Z,99142.69
2023-03-26T03:29:49.444Z,99140.69
2023-03-26T03:32:15.799Z,99145.28
2023-03-26T03:34:42.119Z,99144.19
2023-03-26T03:37:08.467Z,99150.06
2023-03-26T03:42:18.868Z,99132.69
2023-03-26T03:44:45.178Z,99136.94
2023-03-26T03:47:11.526Z,99142.94
2023-03-26T03:49:37.859Z,99140.50
2023-03-26T03:52:04.298Z,99145.63
2023-03-26T03:57:14.428Z,99148.50
2023-03-26T03:59:47.615Z,99143.19
2023-03-26T04:02:14.507Z,99140.41
2023-03-26T04:04:40.900Z,99143.28
2023-03-26T04:07:07.296Z,99143.66
2023-03-26T04:12:17.501Z,99134.50
2023-03-26T04:14:43.858Z,99138.09
2023-03-26T04:17:10.176Z,99135.03
2023-03-26T04:19:36.492Z,99133.06
2023-03-26T04:22:02.835Z,99128.94
2023-03-26T04:27:23.060Z,99131.72
2023-03-26T04:29:49.391Z,99118.97
2023-03-26T04:32:15.736Z,99130.63
2023-03-26T04:34:42.105Z,99129.38
2023-03-26T04:37:08.471Z,99133.41
2023-03-26T04:42:28.630Z,99127.84
2023-03-26T04:44:54.972Z,99130.63
2023-03-26T04:47:24.134Z,99133.31
2023-03-26T04:49:50.509Z,99133.81
2023-03-26T04:52:16.813Z,99140.41
2023-03-26T04:57:36.953Z,99132.25
2023-03-26T05:00:03.321Z,99134.16
2023-03-26T05:02:29.681Z,99132.25
2023-03-26T05:04:56.014Z,99125.59
2023-03-26T05:07:25.128Z,99123.13
2023-03-26T05:12:45.533Z,99134.59
2023-03-26T05:15:11.897Z,99127.75
2023-03-26T05:17:38.233Z,99126.34
2023-03-26T05:20:04.594Z,99130.38
2023-03-26T05:22:30.910Z,99129.56
2023-03-26T05:24:57.252Z,99134.69
2023-03-26T05:27:23.614Z,99127.41
2023-03-26T05:29:49.949Z,99129.38
2023-03-26T05:32:16.260Z,99125.31
2023-03-26T05:34:42.620Z,99124.25
2023-03-26T05:37:08.980Z,99128.84
2023-03-26T05:39:35.298Z,99128.19
2023-03-26T05:42:01.701Z,99122.97
2023-03-26T05:44:28.038Z,99123.81
2023-03-26T05:46:54.390Z,99115.84
2023-03-26T05:49:20.745Z,99116.09
2023-03-26T05:51:47.099Z,99114.44
2023-03-26T05:54:13.427Z,99118.25
2023-03-26T05:56:39.778Z,99121.47
2023-03-26T05:59:06.102Z,99127.03
2023-03-26T06:01:32.416Z,99132.16
2023-03-26T06:03:58.788Z,99124.41
2023-03-26T06:06:25.139Z,99127.78
2023-03-26T06:09:02.312Z,99120.56
2023-03-26T06:11:31.069Z,99127.00
2023-03-26T06:13:59.383Z,99132.56
2023-03-26T06:16:28.664Z,99138.13
2023-03-26T06:18:56.630Z,99136.56
2023-03-26T06:21:24.066Z,99135.00
2023-03-26T06:23:50.510Z,99131.00
2023-03-26T06:26:17.924Z,99127.41
2023-03-26T06:28:44.384Z,99130.31
2023-03-26T06:31:10.910Z,99131.09
2023-03-26T06:33:38.336Z,99135.88
2023-03-26T06:36:04.912Z,99132.66
2023-03-26T06:38:32.296Z,99132.16
2023-03-26T06:40:58.787Z,99129.19
2023-03-26T06:46:12.247Z,99145.00
2023-03-26T06:48:38.722Z,99139.06
2023-03-26T06:51:06.033Z,99139.78
2023-03-26T06:53:34.330Z,99138.56
2023-03-26T06:56:00.711Z,99139.88
2023-03-26T07:01:21.197Z,99138.56
2023-03-26T07:03:47.689Z,99138.13
2023-03-26T07:06:15.034Z,99140.13
2023-03-26T07:08:43.374Z,99135.78
2023-03-26T07:11:09.806Z,99137.44
2023-03-26T07:16:30.706Z,99128.31
2023-03-26T07:18:57.120Z,99129.88
2023-03-26T07:21:23.503Z,99124.63
2023-03-26T07:23:49.853Z,99132.25
2023-03-26T07:26:16.219Z,99130.22
2023-03-26T07:31:26.283Z,99120.56
2023-03-26T07:33:52.620Z,99118.66
2023-03-26T07:36:19.882Z,99136.94
2023-03-26T07:38:46.222Z,99130.63
2023-03-26T07:41:13.428Z,99125.06
2023-03-26T07:46:34.986Z,99120.69
2023-03-26T07:49:01.463Z,99123.56
2023-03-26T07:51:29.745Z,99121.59
2023-03-26T07:53:58.924Z,99123.47
2023-03-26T07:56:25.466Z,99116.81
2023-03-26T08:01:36.916Z,99111.69
2023-03-26T08:04:25.237Z,99110.91
2023-03-26T08:06:50.629Z,99114.03
2023-03-26T08:09:17.055Z,99109.78
2023-03-26T08:11:44.338Z,99110.47
2023-03-26T08:16:55.679Z,99108.72
2023-03-26T08:19:22.139Z,99110.81
2023-03-26T08:21:48.590Z,99110.75
2023-03-26T08:24:15.048Z,99102.38
2023-03-26T08:26:41.528Z,99100.56
2023-03-26T08:32:06.657Z,99102.56
2023-03-26T08:34:33.151Z,99105.59
2023-03-26T08:36:59.617Z,99096.81
2023-03-26T08:39:26.081Z,99105.00
2023-03-26T08:41:54.392Z,99102.09
2023-03-26T08:47:15.727Z,99110.91
2023-03-26T08:49:42.127Z,99115.06
2023-03-26T08:52:09.366Z,99103.94
2023-03-26T08:54:35.725Z,99096.38
2023-03-26T08:57:02.103Z,99107.88
2023-03-26T09:02:13.090Z,99113.94
2023-03-26T09:04:39.523Z,99106.13
2023-03-26T09:07:05.877Z,99104.88
2023-03-26T09:09:32.213Z,99109.03
2023-03-26T09:11:58.590Z,99117.63
2023-03-26T09:17:09.085Z,99102.22
2023-03-26T09:19:35.450Z,99101.06
2023-03-26T09:22:01.820Z,99096.75
2023-03-26T09:24:28.157Z,99085.84
2023-03-26T09:26:54.498Z,99090.13
2023-03-26T09:32:14.758Z,99083.38
2023-03-26T09:34:41.213Z,99084.22
2023-03-26T09:37:07.537Z,99093.88
2023-03-26T09:39:36.810Z,99091.72
2023-03-26T09:42:03.188Z,99084.66
2023-03-26T09:47:13.225Z,99093.72
2023-03-26T09:49:39.589Z,99089.22
2023-03-26T09:52:05.994Z,99089.22
2023-03-26T09:54:32.332Z,99097.19
2023-03-26T09:57:00.269Z,99090.16
2023-03-26T09:59:26.655Z,99084.03
2023-03-26T10:01:52.992Z,99078.44
2023-03-26T10:04:19.359Z,99082.56
2023-03-26T10:06:45.675Z,99073.69
2023-03-26T10:09:12.060Z,99071.06
2023-03-26T10:11:38.397Z,99082.06
2023-03-26T10:14:04.793Z,99094.69
2023-03-26T10:16:31.221Z,99086.91
2023-03-26T10:18:57.609Z,99099.25
2023-03-26T10:21:26.745Z,99083.31
2023-03-26T10:23:54.355Z,99078.47
2023-03-26T10:26:20.862Z,99072.19
2023-03-26T10:28:47.211Z,99076.81
2023-03-26T10:31:13.593Z,99073.41
2023-03-26T10:33:39.937Z,99060.53
2023-03-26T10:36:08.309Z,99061.66
2023-03-26T10:38:34.661Z,99051.81
2023-03-26T10:41:01.030Z,99056.97
2023-03-26T10:43:27.395Z,99066.59
2023-03-26T10:45:53.834Z,99060.19
2023-03-26T10:48:20.259Z,99078.78
2023-03-26T10:50:46.574Z,99088.44
2023-03-26T10:53:12.896Z,99080.72
2023-03-26T10:55:39.211Z,99078.78
2023-03-26T10:58:05.568Z,99067.91
2023-03-26T11:00:31.898Z,99071.97
2023-03-26T11:02:58.262Z,99064.28
2023-03-26T11:05:24.667Z,99066.78
2023-03-26T11:07:51.043Z,99061.31
2023-03-26T11:10:17.423Z,99066.06
2023-03-26T11:12:43.778Z,99054.94
2023-03-26T11:15:10.082Z,99049.16
2023-03-26T11:20:33.132Z,99050.94
2023-03-26T11:22:59.544Z,99052.41
2023-03-26T11:25:25.873Z,99059.91
2023-03-26T11:27:52.196Z,99059.75
2023-03-26T11:30:18.556Z,99059.25
2023-03-26T11:35:40.499Z,99059.31
2023-03-26T11:38:07.512Z,99065.16
2023-03-26T11:40:33.844Z,99067.03
2023-03-26T11:43:00.155Z,99066.78
2023-03-26T11:45:26.594Z,99066.38
2023-03-26T11:50:36.741Z,99064.19
2023-03-26T11:53:03.059Z,99060.31
2023-03-26T11:55:29.562Z,99053.81
2023-03-26T11:57:55.891Z,99063.75
2023-03-26T12:00:25.002Z,99057.91
2023-03-26T12:05:45.176Z,99070.06
2023-03-26T12:08:11.532Z,99069.13
2023-03-26T12:10:38.020Z,99062.06
2023-03-26T12:13:04.744Z,99068.47
2023-03-26T12:15:31.085Z,99064.41
2023-03-26T12:20:54.468Z,99068.34
2023-03-26T12:23:20.882Z,99063.34
2023-03-26T12:25:47.183Z,99064.03
2023-03-26T12:28:13.514Z,99071.13
2023-03-26T12:30:39.874Z,99065.06
2023-03-26T12:36:02.613Z,99061.19
2023-03-26T12:38:28.991Z,99053.72
2023-03-26T12:40:55.428Z,99051.72
2023-03-26T12:44:54.606Z,99044.53
2023-03-26T12:47:57.447Z,99036.38
2023-03-26T12:51:48.187Z,99036.13
2023-03-26T12:54:15.411Z,99031.59
2023-03-26T12:56:41.801Z,99038.44
2023-03-26T12:59:08.647Z,99037.84
2023-03-26T13:01:35.036Z,99030.97
2023-03-26T13:06:59.515Z,99040.78
2023-03-26T13:09:30.979Z,99041.03
2023-03-26T13:11:57.318Z,99051.53
2023-03-26T13:14:23.650Z,99041.56
2023-03-26T13:16:50.084Z,99038.69
2023-03-26T13:22:00.610Z,99040.69
2023-03-26T13:24:26.934Z,99040.94
2023-03-26T13:26:53.268Z,99030.72
2023-03-26T13:29:20.657Z,99024.63
2023-03-26T13:31:47.074Z,99031.31
2023-03-26T13:37:11.132Z,99029.16
2023-03-26T13:39:37.879Z,99032.78
2023-03-26T13:42:04.315Z,99024.88
2023-03-26T13:44:30.697Z,99023.34
2023-03-26T13:46:57.062Z,99026.22
2023-03-26T13:52:07.116Z,99033.28
2023-03-26T13:54:33.488Z,99033.47
2023-03-26T13:57:00.133Z,99033.47
2023-03-26T13:59:26.566Z,99042.41
2023-03-26T14:01:52.975Z,99038.25
2023-03-26T14:07:03.464Z,99047.69
2023-03-26T14:09:30.066Z,99036.56
2023-03-26T14:11:56.480Z,99040.91
2023-03-26T14:14:23.907Z,99032.94
2023-03-26T14:16:50.347Z,99044.19
2023-03-26T14:22:10.761Z,99054.41
2023-03-26T14:24:37.085Z,99046.00
2023-03-26T14:27:03.410Z,99056.47
2023-03-26T14:29:30.209Z,99052.22
2023-03-26T14:31:56.677Z,99050.81
2023-03-26T14:37:06.865Z,99040.56
2023-03-26T14:39:33.205Z,99049.50
2023-03-26T14:41:59.549Z,99052.78
2023-03-26T14:44:25.888Z,99053.06
2023-03-26T14:46:55.787Z,99060.25
2023-03-26T14:52:06.396Z,99047.31
2023-03-26T14:54:32.735Z,99045.84
2023-03-26T14:56:59.127Z,99051.13
2023-03-26T14:59:25.475Z,99050.44
2023-03-26T15:01:51.838Z,99040.91
2023-03-26T15:04:18.219Z,99037.19
2023-03-26T15:06:44.557Z,99035.59
2023-03-26T15:09:10.883Z,99034.91
2023-03-26T15:11:37.244Z,99043.81
2023-03-26T15:14:03.559Z,99043.00
2023-03-26T15:16:29.900Z,99042.91
2023-03-26T15:18:56.257Z,99042.91
2023-03-26T15:21:22.602Z,99045.16
2023-03-26T15:23:48.937Z,99044.72
2023-03-26T15:26:15.325Z,99044.41
2023-03-26T15:28:41.633Z,99053.75
2023-03-26T15:31:08.044Z,99048.66
2023-03-26T15:33:34.345Z,99049.09
2023-03-26T15:36:00.730Z,99054.47
2023-03-26T15:38:27.144Z,99051.44
2023-03-26T15:40:54.483Z,99060.63
2023-03-26T15:43:21.274Z,99053.94
2023-03-26T15:45:47.725Z,99062.28
2023-03-26T15:48:14.354Z,99067.47
2023-03-26T15:50:40.729Z,99059.91
2023-03-26T15:53:07.091Z,99069.66
2023-03-26T15:55:33.444Z,99063.13
2023-03-26T15:57:59.844Z,99072.34
2023-03-26T16:00:26.200Z,99068.69
2023-03-26T16:02:52.590Z,99067.41
2023-03-26T16:05:20.107Z,99065.47
2023-03-26T16:07:49.282Z,99076.25
2023-03-26T16:10:15.597Z,99081.47
2023-03-26T16:12:41.946Z,99071.91
2023-03-26T16:15:09.193Z,99075.03
2023-03-26T16:17:35.578Z,99071.47
2023-03-26T16:20:01.917Z,99072.53
2023-03-26T16:25:27.732Z,99071.38
2023-03-26T16:27:57.893Z,99076.50
2023-03-26T16:30:24.205Z,99078.84
2023-03-26T16:32:50.540Z,99073.19
2023-03-26T16:35:16.928Z,99084.41
2023-03-26T16:40:30.276Z,99088.41
2023-03-26T16:42:56.635Z,99087.97
2023-03-26T16:45:23.068Z,99086.41
2023-03-26T16:47:49.611Z,99095.88
2023-03-26T16:50:16.429Z,99088.72
2023-03-26T16:55:26.898Z,99103.09
2023-03-26T16:57:53.301Z,99099.09
2023-03-26T17:00:20.566Z,99109.78
2023-03-26T17:02:47.103Z,99107.84
2023-03-26T17:05:13.643Z,99111.44
2023-03-26T17:10:33.934Z,99115.75
2023-03-26T17:13:01.187Z,99121.56
2023-03-26T17:15:27.512Z,99117.59
2023-03-26T17:17:54.133Z,99114.91
2023-03-26T17:20:20.502Z,99125.91
2023-03-26T17:25:30.910Z,99123.91
2023-03-26T17:27:57.237Z,99123.13
2023-03-26T17:30:23.660Z,99126.34
2023-03-26T17:32:50.013Z,99125.59
2023-03-26T17:35:16.440Z,99125.50
2023-03-26T17:40:26.883Z,99128.38
2023-03-26T17:42:53.225Z,99129.91
2023-03-26T17:45:20.432Z,99125.06
2023-03-26T17:47:46.836Z,99121.13
2023-03-26T17:50:13.189Z,99123.91
2023-03-26T17:55:23.628Z,99125.91
2023-03-26T17:57:49.954Z,99122.28
2023-03-26T18:00:16.335Z,99123.72
2023-03-26T18:02:42.841Z,99126.16
2023-03-26T18:05:09.392Z,99125.84
2023-03-26T18:10:30.760Z,99125.84
2023-03-26T18:12:57.178Z,99134.94
2023-03-26T18:15:25.470Z,99122.72
2023-03-26T18:17:53.832Z,99125.06
2023-03-26T18:20:20.317Z,99121.47
2023-03-26T18:25:41.038Z,99128.63
2023-03-26T18:28:08.398Z,99131.84
2023-03-26T18:30:36.725Z,99129.94
2023-03-26T18:33:04.060Z,99126.81
2023-03-26T18:35:30.480Z,99128.78
2023-03-26T18:40:51.750Z,99126.00
2023-03-26T18:43:28.865Z,99125.22
2023-03-26T18:46:01.895Z,99122.09
2023-03-26T18:48:31.073Z,99122.88
2023-03-26T18:51:00.249Z,99118.91
2023-03-26T18:56:26.327Z,99112.19
2023-03-26T18:58:52.714Z,99112.19
2023-03-26T19:01:25.392Z,99107.09
2023-03-26T19:03:53.295Z,99097.09
2023-03-26T19:06:19.604Z,99104.66
2023-03-26T19:11:39.915Z,99096.41
2023-03-26T19:14:06.468Z,99093.97
2023-03-26T19:16:32.891Z,99089.97
2023-03-26T19:18:59.232Z,99087.66
2023-03-26T19:21:25.880Z,99082.88
2023-03-26T19:26:37.355Z,99080.09
2023-03-26T19:29:04.601Z,99076.53
2023-03-26T19:31:31.035Z,99077.31
2023-03-26T19:33:57.454Z,99075.72
2023-03-26T19:36:23.786Z,99074.97
2023-03-26T19:41:33.938Z,99064.28
2023-03-26T19:44:00.341Z,99069.84
2023-03-26T19:46:26.766Z,99057.50
2023-03-26T19:48:55.057Z,99054.75
2023-03-26T19:51:21.495Z,99055.94
2023-03-26T19:56:42.681Z,99066.28
2023-03-26T19:59:09.097Z,99056.38
2023-03-26T20:01:35.528Z,99069.06
2023-03-26T20:04:03.854Z,99064.28
2023-03-26T20:06:42.254Z,99060.59
2023-03-26T20:12:03.762Z,99052.38
2023-03-26T20:14:31.052Z,99042.47
2023-03-26T20:16:57.513Z,99042.75
2023-03-26T20:19:23.977Z,99045.84
2023-03-26T20:21:50.349Z,99044.19
2023-03-26T20:27:11.562Z,99045.16
2023-03-26T20:29:39.874Z,99041.91
2023-03-26T20:32:07.123Z,99041.38
2023-03-26T20:34:33.598Z,99043.91
2023-03-26T20:37:01.970Z,99040.53
2023-03-26T20:42:16.139Z,99038.06
2023-03-26T20:44:42.729Z,99030.53
2023-03-26T20:47:12.079Z,99030.63
2023-03-26T20:49:38.574Z,99029.41
2023-03-26T20:52:05.048Z,99029.41
2023-03-26T20:57:17.952Z,99035.41
2023-03-26T20:59:44.453Z,99043.72
2023-03-26T21:02:12.867Z,99040.72
2023-03-26T21:04:39.326Z,99041.47
2023-03-26T21:07:15.053Z,99037.94
2023-03-26T21:09:44.707Z,99045.50
2023-03-26T21:12:14.175Z,99051.84
2023-03-26T21:14:42.511Z,99049.91
2023-03-26T21:17:08.993Z,99038.28
2023-03-26T21:19:35.415Z,99042.72
2023-03-26T21:22:05.368Z,99044.25
2023-03-26T21:24:31.838Z,99046.72
2023-03-26T21:27:01.766Z,99048.28
2023-03-26T21:29:30.070Z,99049.75
2023-03-26T21:31:56.517Z,99048.09
2023-03-26T21:34:25.720Z,99049.66
2023-03-26T21:36:52.218Z,99044.63
2023-03-26T21:39:18.660Z,99052.97
2023-03-26T21:41:45.148Z,99050.19
2023-03-26T21:44:13.477Z,99048.53
2023-03-26T21:46:39.962Z,99043.72
2023-03-26T21:49:06.475Z,99048.84
2023-03-26T21:51:32.940Z,99053.31
2023-03-26T21:54:00.359Z,99047.50
2023-03-26T21:56:26.845Z,99049.66
2023-03-26T21:58:53.383Z,99045.22
2023-03-26T22:01:19.929Z,99039.75
2023-03-26T22:03:46.484Z,99028.97
2023-03-26T22:06:13.905Z,99038.19
2023-03-26T22:08:40.358Z,99028.09
2023-03-26T22:11:09.784Z,99022.41
2023-03-26T22:13:37.148Z,99019.25
2023-03-26T22:16:04.568Z,99017.16
2023-03-26T22:18:31.958Z,99027.53
2023-03-26T22:20:59.368Z,99020.63
2023-03-26T22:23:28.832Z,99014.41
2023-03-26T22:25:58.023Z,99011.19
2023-03-26T22:28:25.271Z,99017.59
2023-03-26T22:30:52.635Z,99023.16
2023-03-26T22:33:19.139Z,99015.59
2023-03-26T22:35:47.508Z,99019.34
2023-03-26T22:38:15.927Z,99016.47
2023-03-26T22:40:44.236Z,99025.34
2023-03-26T22:45:55.629Z,99021.69
2023-03-26T22:48:22.052Z,99025.44
2023-03-26T22:50:48.584Z,99025.00
2023-03-26T22:53:15.076Z,99030.91
2023-03-26T22:55:43.346Z,99026.47
2023-03-26T23:01:08.037Z,99029.16
2023-03-26T23:03:38.225Z,99025.09
2023-03-26T23:06:07.427Z,99027.25
2023-03-26T23:08:36.594Z,99022.50
2023-03-26T23:11:05.777Z,99024.91
2023-03-26T23:16:19.070Z,99019.19
2023-03-26T23:18:48.287Z,99014.94
2023-03-26T23:21:17.540Z,99009.28
2023-03-26T23:23:43.944Z,99006.59
2023-03-26T23:26:12.208Z,99006.81
2023-03-26T23:31:34.606Z,99013.16
2023-03-26T23:34:03.854Z,99021.97
2023-03-26T23:36:30.259Z,99027.84
2023-03-26T23:38:56.672Z,99026.28
2023-03-26T23:41:25.855Z,99020.63
2023-03-26T23:46:37.858Z,99029.41
2023-03-26T23:49:07.040Z,99027.84
2023-03-26T23:51:33.488Z,99030.53
2023-03-26T23:54:02.651Z,99024.75
2023-03-26T23:56:29.158Z,99028.63
